Time;durP1;ratioP1;P1;durP2;ratioP2;P2;SDS_P1;SDS_P2;PMS_P1;PMS_P2;Temp;Humidity;BMP_temperature;BMP_pressure;BME280_temperature;BME280_humidity;BME280_pressure;Samples;Min_cycle;Max_cycle;Signal;HPM_P1;HPM_P2
2022/11/03 00:01:08;;;;;;;8.63;2.87;;;9.40;99.90;;;;;;4978270;29;20511;-48
2022/11/03 00:03:35;;;;;;;5.20;3.80;;;9.40;99.90;;;;;;4977908;29;20462;-44
2022/11/03 00:06:05;;;;;;;3.97;3.37;;;9.40;99.90;;;;;;4977710;29;20494;-51
2022/11/03 00:08:33;;;;;;;5.43;3.33;;;9.40;99.90;;;;;;4978088;29;20491;-45
2022/11/03 00:11:05;;;;;;;3.90;2.70;;;9.40;99.90;;;;;;4978284;28;20423;-49
2022/11/03 00:13:32;;;;;;;6.00;3.50;;;9.40;99.90;;;;;;4977802;29;20435;-46
2022/11/03 00:15:59;;;;;;;5.20;3.37;;;9.30;99.90;;;;;;4977952;29;20507;-49
2022/11/03 00:18:27;;;;;;;4.43;3.03;;;9.30;99.90;;;;;;4978397;29;20483;-45
2022/11/03 00:20:58;;;;;;;6.33;3.10;;;9.40;99.90;;;;;;4978427;29;20491;-48
2022/11/03 00:23:27;;;;;;;4.60;2.30;;;9.40;99.90;;;;;;4977965;28;20432;-47
2022/11/03 00:25:54;;;;;;;6.00;2.60;;;9.30;99.90;;;;;;4981014;29;20458;-46
2022/11/03 00:28:21;;;;;;;7.30;3.03;;;9.30;99.90;;;;;;4981828;29;20455;-45
2022/11/03 00:30:47;;;;;;;13.60;3.07;;;9.30;99.90;;;;;;4981607;29;20463;-46
2022/11/03 00:33:14;;;;;;;5.97;2.33;;;9.40;99.90;;;;;;4981304;29;20514;-43
2022/11/03 00:35:42;;;;;;;4.30;3.03;;;9.30;99.90;;;;;;4981314;29;20438;-50
2022/11/03 00:38:11;;;;;;;5.50;3.10;;;9.30;99.90;;;;;;4981114;29;20468;-53
2022/11/03 00:40:38;;;;;;;6.27;3.40;;;9.40;99.90;;;;;;4981299;29;20491;-45
2022/11/03 00:43:06;;;;;;;4.73;3.10;;;9.40;99.90;;;;;;4981632;28;20439;-49
2022/11/03 00:45:32;;;;;;;9.60;3.50;;;9.40;99.90;;;;;;4981085;29;20470;-49
2022/11/03 00:50:45;;;;;;;7.77;3.33;;;9.40;99.90;;;;;;4980953;29;20399;-45
2022/11/03 00:53:11;;;;;;;5.57;3.37;;;9.30;99.90;;;;;;4980737;29;20436;-49
2022/11/03 00:55:38;;;;;;;6.50;3.03;;;9.30;99.90;;;;;;4981114;29;20466;-55
2022/11/03 00:58:05;;;;;;;3.93;2.60;;;9.30;99.90;;;;;;4981022;29;20487;-47
2022/11/03 01:00:31;;;;;;;6.77;3.50;;;9.30;99.90;;;;;;4980251;29;20459;-53
2022/11/03 01:02:58;;;;;;;4.50;2.50;;;9.30;99.90;;;;;;4980523;29;20472;-55
2022/11/03 01:08:11;;;;;;;6.27;3.17;;;9.20;99.90;;;;;;4981066;29;20472;-47
2022/11/03 01:11:42;;;;;;;10.03;4.10;;;9.20;99.90;;;;;;4979833;28;20510;-49
2022/11/03 01:13:25;;;;;;;7.07;3.10;;;9.10;99.90;;;;;;4980321;29;20832;-48
2022/11/03 01:15:56;;;;;;;4.37;2.90;;;9.10;99.90;;;;;;4980794;29;20543;-45
2022/11/03 01:18:23;;;;;;;5.03;2.90;;;9.10;99.90;;;;;;4980382;29;20455;-51
2022/11/03 01:20:54;;;;;;;4.73;3.17;;;9.10;99.90;;;;;;4980609;29;20519;-53
2022/11/03 01:23:22;;;;;;;11.10;3.53;;;9.10;99.90;;;;;;4980373;29;20492;-48
2022/11/03 01:25:49;;;;;;;4.67;3.10;;;9.20;99.90;;;;;;4980866;29;20512;-50
2022/11/03 01:28:16;;;;;;;5.17;3.00;;;9.20;99.90;;;;;;4980451;29;20523;-50
2022/11/03 01:30:43;;;;;;;4.80;2.40;;;9.20;99.90;;;;;;4980590;29;20468;-48
2022/11/03 01:33:10;;;;;;;3.60;2.40;;;9.20;99.90;;;;;;4980613;29;20488;-47
2022/11/03 01:35:37;;;;;;;5.77;2.83;;;9.10;99.90;;;;;;4979632;28;20428;-48
2022/11/03 01:38:03;;;;;;;7.40;3.57;;;9.10;99.90;;;;;;4979829;29;20471;-45
2022/11/03 01:40:32;;;;;;;5.40;2.60;;;9.00;99.90;;;;;;4979749;29;20551;-48
2022/11/03 01:43:16;;;;;;;11.23;3.90;;;9.00;99.90;;;;;;4979150;29;20451;-46
2022/11/03 01:45:44;;;;;;;4.00;2.67;;;9.00;99.90;;;;;;4979196;29;20494;-46
2022/11/03 01:48:12;;;;;;;2.77;2.07;;;9.00;99.90;;;;;;4979166;29;20823;-51
2022/11/03 01:50:42;;;;;;;9.00;2.80;;;8.90;99.90;;;;;;4978795;29;20478;-47
2022/11/03 01:53:09;;;;;;;4.63;2.40;;;8.90;99.90;;;;;;4979825;29;20524;-50
2022/11/03 01:55:39;;;;;;;7.03;3.70;;;8.90;99.90;;;;;;4979036;29;20451;-51
2022/11/03 01:58:10;;;;;;;5.93;3.20;;;8.90;99.90;;;;;;4978857;29;20488;-50
2022/11/03 02:00:37;;;;;;;5.10;2.40;;;8.80;99.90;;;;;;4978652;29;20456;-50
2022/11/03 02:03:05;;;;;;;8.17;2.30;;;8.80;99.90;;;;;;4979483;29;20452;-48
2022/11/03 02:05:33;;;;;;;7.60;2.80;;;8.80;99.90;;;;;;4968052;29;20534;-51
2022/11/03 02:08:05;;;;;;;3.50;2.07;;;8.80;99.90;;;;;;4979245;29;20447;-49
2022/11/03 02:10:32;;;;;;;4.40;2.23;;;8.80;99.90;;;;;;4978639;29;20856;-48
2022/11/03 02:13:01;;;;;;;5.27;2.43;;;8.80;99.90;;;;;;4979499;29;20479;-50
2022/11/03 02:15:29;;;;;;;2.93;2.67;;;8.80;99.90;;;;;;4979468;29;20462;-48
2022/11/03 02:17:57;;;;;;;4.80;2.40;;;8.80;99.90;;;;;;4978548;29;20507;-48
2022/11/03 02:20:27;;;;;;;5.60;2.33;;;8.80;99.90;;;;;;4979254;29;20495;-45
2022/11/03 02:23:15;;;;;;;3.33;1.70;;;8.80;99.90;;;;;;4968805;29;20460;-47
2022/11/03 02:25:48;;;;;;;5.17;2.23;;;8.80;99.90;;;;;;4976933;29;20444;-50
2022/11/03 02:28:18;;;;;;;5.40;2.80;;;8.70;99.90;;;;;;4978282;29;20542;-50
2022/11/03 02:30:49;;;;;;;21.87;2.87;;;8.60;99.90;;;;;;4979273;29;20438;-49
2022/11/03 02:33:31;;;;;;;3.90;1.97;;;8.50;99.90;;;;;;4978696;29;20432;-47
2022/11/03 02:36:03;;;;;;;3.43;3.13;;;8.40;99.90;;;;;;4972972;29;20482;-52
2022/11/03 02:38:37;;;;;;;7.73;2.77;;;8.40;99.90;;;;;;4975895;29;20476;-50
2022/11/03 02:41:11;;;;;;;3.33;2.60;;;8.40;99.90;;;;;;4978967;29;20515;-49
2022/11/03 02:43:39;;;;;;;9.90;5.57;;;8.30;99.90;;;;;;4979891;28;20412;-44
2022/11/03 02:46:07;;;;;;;3.80;2.50;;;8.40;99.90;;;;;;4979907;29;20448;-44
2022/11/03 02:48:34;;;;;;;8.27;3.17;;;8.40;99.90;;;;;;4977753;28;20425;-48
2022/11/03 02:51:06;;;;;;;2.53;2.10;;;8.50;99.90;;;;;;4978375;29;20462;-46
2022/11/03 02:53:38;;;;;;;13.00;2.80;;;8.40;99.90;;;;;;4978660;29;20522;-50
2022/11/03 02:56:11;;;;;;;5.67;3.30;;;8.40;99.90;;;;;;4978619;29;20484;-48
2022/11/03 02:58:41;;;;;;;6.20;2.50;;;8.40;99.90;;;;;;4979324;28;20520;-52
2022/11/03 03:01:17;;;;;;;7.80;2.83;;;8.50;99.90;;;;;;4968555;29;20424;-43
2022/11/03 03:03:48;;;;;;;4.60;2.47;;;8.50;99.90;;;;;;4979081;29;20436;-45
2022/11/03 03:06:20;;;;;;;3.63;3.33;;;8.50;99.90;;;;;;4978920;29;20436;-52
2022/11/03 03:08:53;;;;;;;5.70;3.40;;;8.40;99.90;;;;;;4979142;29;20495;-51
2022/11/03 03:11:36;;;;;;;3.50;2.20;;;8.40;99.90;;;;;;4978627;29;20461;-51
2022/11/03 03:14:08;;;;;;;4.23;2.33;;;8.40;99.90;;;;;;4978463;29;20431;-50
2022/11/03 03:16:50;;;;;;;14.10;2.73;;;8.40;99.90;;;;;;4978304;29;20428;-49
2022/11/03 03:19:23;;;;;;;2.50;2.30;;;8.40;99.90;;;;;;4978745;29;20447;-50
2022/11/03 03:21:53;;;;;;;5.03;2.57;;;8.40;99.90;;;;;;4968484;28;20433;-54
2022/11/03 03:24:28;;;;;;;3.07;2.60;;;8.30;99.90;;;;;;4978602;29;20457;-52
2022/11/03 03:27:01;;;;;;;9.77;3.07;;;8.20;99.90;;;;;;4977954;29;20407;-50
2022/11/03 03:29:38;;;;;;;4.07;2.70;;;8.20;99.90;;;;;;4977864;29;20474;-49
2022/11/03 03:32:09;;;;;;;4.97;3.17;;;8.20;99.90;;;;;;4978928;29;20426;-44
2022/11/03 03:34:40;;;;;;;5.40;2.83;;;8.30;99.90;;;;;;4978430;29;20471;-45
2022/11/03 03:37:08;;;;;;;4.50;2.20;;;8.20;99.90;;;;;;4978394;29;20420;-49
2022/11/03 03:39:38;;;;;;;5.00;2.63;;;8.20;99.90;;;;;;4976984;29;20555;-50
2022/11/03 03:42:11;;;;;;;5.73;3.33;;;8.20;99.90;;;;;;4976901;29;20547;-45
2022/11/03 03:44:40;;;;;;;8.00;2.90;;;8.30;99.90;;;;;;4978036;29;20443;-50
2022/11/03 03:47:13;;;;;;;3.30;2.00;;;8.30;99.90;;;;;;4977563;29;20475;-51
2022/11/03 03:49:43;;;;;;;7.70;2.60;;;8.30;99.90;;;;;;4977701;29;20432;-51
2022/11/03 03:52:11;;;;;;;5.53;2.73;;;8.30;99.90;;;;;;4969943;29;20467;-44
2022/11/03 03:54:37;;;;;;;3.07;2.57;;;8.20;99.90;;;;;;4977681;29;20460;-46
2022/11/03 03:57:07;;;;;;;4.13;2.53;;;8.20;99.90;;;;;;4966396;29;20905;-47
2022/11/03 03:59:34;;;;;;;5.83;3.20;;;8.30;99.90;;;;;;4978375;28;20551;-44
2022/11/03 04:02:01;;;;;;;3.27;2.03;;;8.20;99.90;;;;;;4981097;29;20435;-53
2022/11/03 04:04:28;;;;;;;4.07;2.83;;;8.30;99.90;;;;;;4972125;29;20439;-51
2022/11/03 04:09:39;;;;;;;4.80;2.93;;;8.30;99.90;;;;;;4981228;29;20467;-48
2022/11/03 04:23:06;;;;;;;3.30;2.20;;;8.30;99.90;;;;;;4980674;29;20517;-50
2022/11/03 04:25:34;;;;;;;3.60;2.90;;;8.30;99.90;;;;;;4980330;29;20629;-52
2022/11/03 04:28:08;;;;;;;11.97;3.83;;;8.30;99.90;;;;;;4972858;29;20846;-54
2022/11/03 04:30:35;;;;;;;3.93;2.43;;;8.20;99.90;;;;;;4978440;29;20478;-54
2022/11/03 04:33:02;;;;;;;9.80;3.10;;;8.20;99.90;;;;;;4980474;29;20507;-47
2022/11/03 04:35:29;;;;;;;4.03;3.10;;;8.20;99.90;;;;;;4980337;29;20458;-48
2022/11/03 04:38:00;;;;;;;5.47;2.77;;;8.20;99.90;;;;;;4979902;29;20499;-53
2022/11/03 04:40:27;;;;;;;5.97;3.03;;;8.20;99.90;;;;;;4980443;29;20459;-45
2022/11/03 04:42:54;;;;;;;4.90;4.13;;;8.10;99.90;;;;;;4980201;29;20528;-52
2022/11/03 04:45:26;;;;;;;3.07;2.23;;;8.10;99.90;;;;;;4971655;29;20462;-52
2022/11/03 04:47:53;;;;;;;7.87;4.80;;;8.10;99.90;;;;;;4978714;29;20433;-50
2022/11/03 04:50:22;;;;;;;4.83;3.10;;;8.10;99.90;;;;;;4980394;29;20440;-47
2022/11/03 04:52:57;;;;;;;7.23;3.47;;;8.10;99.90;;;;;;4980875;29;20447;-48
2022/11/03 04:55:25;;;;;;;8.87;3.20;;;8.10;99.90;;;;;;4980881;29;20505;-49
2022/11/03 04:57:57;;;;;;;7.00;3.20;;;8.60;99.90;;;;;;4980641;29;20448;-51
2022/11/03 05:00:29;;;;;;;5.53;2.70;;;8.10;99.90;;;;;;4981211;29;20491;-50
2022/11/03 05:02:56;;;;;;;6.23;3.03;;;8.10;99.90;;;;;;4980056;29;20491;-56
2022/11/03 05:05:25;;;;;;;6.97;3.60;;;7.90;99.90;;;;;;4980677;29;20487;-48
2022/11/03 05:07:54;;;;;;;13.40;3.07;;;7.90;99.90;;;;;;4980163;29;20475;-48
2022/11/03 05:10:25;;;;;;;5.83;3.43;;;7.90;99.90;;;;;;4980418;28;20452;-46
2022/11/03 05:12:53;;;;;;;5.87;3.07;;;7.90;99.90;;;;;;4980143;29;20483;-51
2022/11/03 05:15:29;;;;;;;4.33;2.90;;;7.90;99.90;;;;;;4980000;29;20538;-48
2022/11/03 05:17:59;;;;;;;3.87;2.83;;;7.90;99.90;;;;;;4980410;29;20428;-49
2022/11/03 05:20:36;;;;;;;4.03;2.90;;;7.90;99.90;;;;;;4979904;29;20488;-51
2022/11/03 05:23:05;;;;;;;4.00;3.20;;;7.90;99.90;;;;;;4967631;29;20439;-47
2022/11/03 05:25:38;;;;;;;3.37;3.07;;;7.90;99.90;;;;;;4979807;29;20472;-45
2022/11/03 05:28:20;;;;;;;5.10;2.90;;;7.90;99.90;;;;;;4980009;29;20431;-46
2022/11/03 05:30:50;;;;;;;8.33;2.60;;;7.90;99.90;;;;;;4979498;29;20531;-49
2022/11/03 05:33:25;;;;;;;5.93;3.20;;;7.90;99.90;;;;;;4979123;29;20543;-44
2022/11/03 05:35:52;;;;;;;5.13;2.83;;;8.00;99.90;;;;;;4979895;29;20428;-47
2022/11/03 05:38:21;;;;;;;5.87;2.60;;;8.00;99.90;;;;;;4979878;29;20567;-50
2022/11/03 05:40:52;;;;;;;8.17;2.40;;;8.00;99.90;;;;;;4979459;29;20499;-47
2022/11/03 05:43:19;;;;;;;10.20;2.70;;;8.00;99.90;;;;;;4979604;29;20468;-51
2022/11/03 05:45:49;;;;;;;6.20;3.20;;;8.00;99.90;;;;;;4979410;29;20436;-51
2022/11/03 05:48:23;;;;;;;8.50;2.83;;;8.00;99.90;;;;;;4979807;29;20427;-42
2022/11/03 05:50:49;;;;;;;4.33;2.07;;;7.90;99.90;;;;;;4979566;29;20428;-51
2022/11/03 05:53:29;;;;;;;4.03;2.93;;;7.90;99.90;;;;;;4979897;29;20448;-47
2022/11/03 05:55:59;;;;;;;7.40;2.67;;;7.90;99.90;;;;;;4979078;29;20558;-50
2022/11/03 05:58:28;;;;;;;4.90;2.47;;;7.80;99.90;;;;;;4979585;29;20515;-54
2022/11/03 06:00:57;;;;;;;4.43;3.10;;;7.80;99.90;;;;;;4979128;29;20475;-46
2022/11/03 06:03:27;;;;;;;6.57;3.33;;;7.80;99.90;;;;;;4979218;29;20428;-48
2022/11/03 06:05:55;;;;;;;5.03;2.70;;;7.70;99.90;;;;;;4979335;29;20500;-50
2022/11/03 06:08:28;;;;;;;10.00;2.90;;;7.80;99.90;;;;;;4977918;29;20474;-46
2022/11/03 06:10:58;;;;;;;4.20;3.10;;;7.80;99.90;;;;;;4978281;29;20424;-48
2022/11/03 06:13:29;;;;;;;6.03;3.73;;;7.80;99.90;;;;;;4978404;29;20431;-49
2022/11/03 06:16:01;;;;;;;7.67;2.63;;;7.80;99.90;;;;;;4978432;29;20471;-48
2022/11/03 06:18:33;;;;;;;6.27;3.17;;;7.70;99.90;;;;;;4978084;29;20435;-47
2022/11/03 06:21:06;;;;;;;5.83;2.93;;;7.80;99.90;;;;;;4977880;29;20542;-49
2022/11/03 06:23:35;;;;;;;5.90;3.60;;;7.80;99.90;;;;;;4977469;28;20452;-50
2022/11/03 06:26:03;;;;;;;5.13;2.70;;;7.90;99.90;;;;;;4977366;29;20532;-44
2022/11/03 06:28:36;;;;;;;4.83;2.90;;;7.90;99.90;;;;;;4977907;29;20458;-48
2022/11/03 06:31:04;;;;;;;3.50;2.83;;;7.80;99.90;;;;;;4977735;29;20428;-54
2022/11/03 06:33:35;;;;;;;5.13;3.40;;;7.90;99.90;;;;;;4977576;29;20535;-46
2022/11/03 06:36:05;;;;;;;5.90;2.40;;;7.80;99.90;;;;;;4978000;29;20467;-44
2022/11/03 06:38:35;;;;;;;7.77;3.03;;;7.80;99.90;;;;;;4977313;29;20467;-49
2022/11/03 06:41:01;;;;;;;11.43;3.00;;;7.80;99.90;;;;;;4977745;29;20480;-47
2022/11/03 06:43:41;;;;;;;5.20;3.07;;;7.80;99.90;;;;;;4977418;29;20434;-48
2022/11/03 06:46:18;;;;;;;3.80;2.50;;;7.80;99.90;;;;;;4976315;29;20436;-49
2022/11/03 06:48:45;;;;;;;6.07;2.93;;;7.80;99.90;;;;;;4969999;29;20503;-51
2022/11/03 06:51:18;;;;;;;6.57;3.53;;;7.80;99.90;;;;;;4977386;29;20559;-47
2022/11/03 06:53:46;;;;;;;4.63;2.67;;;7.80;99.90;;;;;;4974916;29;20456;-52
2022/11/03 06:56:16;;;;;;;9.33;3.00;;;7.90;99.90;;;;;;4970838;29;20497;-50
2022/11/03 06:58:43;;;;;;;7.13;3.40;;;7.90;99.90;;;;;;4977599;28;20535;-50
2022/11/03 07:01:15;;;;;;;8.33;2.40;;;8.00;99.90;;;;;;4977242;29;20555;-45
2022/11/03 07:03:42;;;;;;;4.20;2.90;;;8.00;99.90;;;;;;4977911;29;20471;-49
2022/11/03 07:09:08;;;;;;;7.55;3.65;;;8.00;99.90;;;;;;5135362;27;1225078;-53
2022/11/03 07:11:44;;;;;;;6.37;2.87;;;8.00;99.90;;;;;;5155682;27;20182;-52
2022/11/03 07:14:14;;;;;;;4.10;2.93;;;8.10;99.90;;;;;;5154562;28;20426;-46
2022/11/03 07:16:45;;;;;;;3.63;2.67;;;8.00;99.90;;;;;;5154454;28;20455;-53
2022/11/03 07:19:18;;;;;;;7.20;2.70;;;8.10;99.90;;;;;;5153688;28;20448;-47
2022/11/03 07:21:48;;;;;;;5.03;2.80;;;8.10;99.90;;;;;;5153464;28;20498;-48
2022/11/03 07:24:21;;;;;;;8.07;2.90;;;8.10;99.90;;;;;;5153641;28;20452;-49
2022/11/03 07:26:49;;;;;;;7.53;3.77;;;8.20;99.90;;;;;;5153130;28;20490;-48
2022/11/03 07:29:21;;;;;;;3.33;2.80;;;8.20;99.90;;;;;;5152505;28;20476;-53
2022/11/03 07:31:49;;;;;;;5.70;3.97;;;8.30;99.90;;;;;;5153120;28;20424;-45
2022/11/03 07:34:21;;;;;;;8.60;5.27;;;8.40;99.90;;;;;;5152955;28;20507;-53
2022/11/03 07:36:50;;;;;;;11.93;6.30;;;8.40;99.90;;;;;;5153264;28;20503;-47
2022/11/03 07:39:20;;;;;;;6.60;4.00;;;8.50;99.90;;;;;;5153294;28;20456;-43
2022/11/03 07:41:48;;;;;;;12.33;5.00;;;8.60;99.90;;;;;;5153067;28;20444;-49
2022/11/03 07:44:19;;;;;;;18.23;6.83;;;8.70;99.90;;;;;;5154497;28;20499;-46
2022/11/03 07:46:47;;;;;;;10.67;5.90;;;8.80;99.90;;;;;;5154240;28;20443;-48
2022/11/03 07:49:24;;;;;;;10.20;5.13;;;8.90;99.90;;;;;;5154021;28;20459;-48
2022/11/03 07:51:51;;;;;;;11.63;4.10;;;8.90;99.90;;;;;;5153848;27;20470;-45
2022/11/03 07:54:22;;;;;;;6.00;4.70;;;9.00;99.90;;;;;;5153849;28;20444;-51
2022/11/03 07:56:52;;;;;;;8.90;5.30;;;9.10;99.90;;;;;;5153414;28;20431;-49
2022/11/03 07:59:21;;;;;;;6.70;4.43;;;9.10;99.90;;;;;;5153086;28;20505;-49
2022/11/03 08:01:50;;;;;;;7.40;4.10;;;9.30;99.90;;;;;;5152437;28;20444;-50
2022/11/03 08:04:20;;;;;;;5.50;4.00;;;9.30;99.90;;;;;;5152213;28;20531;-46
2022/11/03 08:06:47;;;;;;;4.87;2.93;;;9.40;99.90;;;;;;5151928;28;20499;-50
2022/11/03 08:09:14;;;;;;;4.43;2.77;;;9.50;99.90;;;;;;5152165;28;20444;-51
2022/11/03 08:11:42;;;;;;;4.67;2.60;;;9.60;99.90;;;;;;5142394;28;20451;-45
2022/11/03 08:14:09;;;;;;;3.77;2.43;;;9.60;99.90;;;;;;5152812;28;20511;-54
2022/11/03 08:16:36;;;;;;;5.00;2.40;;;9.60;99.90;;;;;;5152838;28;20475;-51
2022/11/03 08:19:02;;;;;;;4.43;2.60;;;9.60;99.90;;;;;;5146883;28;20504;-48
2022/11/03 08:21:29;;;;;;;5.33;3.30;;;9.60;99.90;;;;;;5138508;28;20464;-51
2022/11/03 08:23:56;;;;;;;8.93;5.27;;;9.60;99.90;;;;;;5139415;28;20468;-47
2022/11/03 08:26:23;;;;;;;6.53;2.53;;;9.70;99.90;;;;;;5139884;28;20496;-45
2022/11/03 08:28:52;;;;;;;4.27;1.83;;;9.70;99.90;;;;;;5140017;28;20495;-53
2022/11/03 08:31:18;;;;;;;9.60;3.30;;;9.60;99.90;;;;;;5140181;28;20458;-50
2022/11/03 08:33:45;;;;;;;8.63;3.67;;;9.60;99.90;;;;;;5138863;28;20512;-50
2022/11/03 08:36:12;;;;;;;5.30;2.57;;;9.60;99.90;;;;;;5137962;28;20504;-52
2022/11/03 08:38:39;;;;;;;9.50;3.90;;;9.60;99.90;;;;;;5138232;28;20471;-46
2022/11/03 08:41:06;;;;;;;3.60;3.13;;;9.60;99.90;;;;;;5138549;28;20519;-49
2022/11/03 08:43:33;;;;;;;11.57;4.10;;;9.70;99.90;;;;;;5138459;28;20445;-47
2022/11/03 08:46:01;;;;;;;9.57;2.57;;;9.80;99.90;;;;;;5138140;28;20528;-49
2022/11/03 08:48:28;;;;;;;7.30;2.93;;;9.80;99.90;;;;;;5138737;28;20481;-48
2022/11/03 08:50:55;;;;;;;8.20;2.43;;;9.80;99.90;;;;;;5138914;28;20440;-45
2022/11/03 08:53:24;;;;;;;15.70;2.90;;;9.90;99.90;;;;;;5137628;28;20444;-48
2022/11/03 08:55:51;;;;;;;4.30;2.73;;;9.90;99.90;;;;;;5138578;28;20470;-43
2022/11/03 08:58:18;;;;;;;3.27;2.33;;;10.10;99.90;;;;;;5138644;28;20466;-47
2022/11/03 09:00:45;;;;;;;6.30;3.67;;;10.20;99.90;;;;;;5138818;28;20489;-51
2022/11/03 09:03:13;;;;;;;4.13;2.60;;;10.40;99.90;;;;;;5138122;28;20504;-48
2022/11/03 09:05:40;;;;;;;2.87;2.00;;;10.60;99.90;;;;;;5138878;28;20472;-48
2022/11/03 09:08:07;;;;;;;5.00;3.30;;;10.80;99.90;;;;;;5138259;28;20468;-50
2022/11/03 09:10:34;;;;;;;8.60;2.80;;;11.00;99.90;;;;;;5130240;28;20470;-50
2022/11/03 09:13:00;;;;;;;3.50;2.90;;;11.10;99.90;;;;;;5135027;28;20463;-47
2022/11/03 09:15:28;;;;;;;8.87;2.40;;;11.30;99.90;;;;;;5138106;28;20496;-48
2022/11/03 09:17:54;;;;;;;8.17;3.40;;;11.40;99.90;;;;;;5137736;28;20441;-50
2022/11/03 09:20:23;;;;;;;8.50;3.27;;;11.60;99.90;;;;;;5129308;28;20444;-47
2022/11/03 09:22:50;;;;;;;6.90;3.70;;;11.70;99.90;;;;;;5131427;28;20985;-51
2022/11/03 09:25:16;;;;;;;8.50;2.27;;;12.30;99.90;;;;;;5128615;28;20428;-48
2022/11/03 09:27:43;;;;;;;3.13;2.37;;;13.30;99.90;;;;;;5137851;28;20535;-45
2022/11/03 09:30:11;;;;;;;3.43;2.13;;;14.20;99.90;;;;;;5137050;28;20447;-49
2022/11/03 09:32:38;;;;;;;13.43;2.90;;;15.00;99.90;;;;;;5137192;28;20436;-49
2022/11/03 09:35:06;;;;;;;6.93;2.40;;;15.60;99.90;;;;;;5129384;28;20563;-49
2022/11/03 09:37:34;;;;;;;5.17;3.03;;;16.00;99.90;;;;;;5132591;28;20517;-50
2022/11/03 09:40:03;;;;;;;6.90;2.80;;;16.60;99.90;;;;;;5127104;28;20488;-47
2022/11/03 09:42:33;;;;;;;3.77;2.23;;;17.10;99.90;;;;;;5124409;28;20452;-46
2022/11/03 09:45:00;;;;;;;11.53;2.27;;;17.70;99.90;;;;;;5137692;28;20479;-50
2022/11/03 09:47:32;;;;;;;9.70;2.60;;;18.10;99.90;;;;;;5137154;28;20463;-48
2022/11/03 09:50:00;;;;;;;3.43;2.30;;;18.50;99.90;;;;;;5137794;28;20428;-47
2022/11/03 09:52:27;;;;;;;3.83;2.63;;;18.80;99.90;;;;;;5137565;28;20448;-45
2022/11/03 09:54:55;;;;;;;7.17;2.43;;;18.80;99.70;;;;;;5137320;28;20439;-47
2022/11/03 09:57:22;;;;;;;4.13;2.10;;;18.70;99.20;;;;;;5137719;28;20433;-49
2022/11/03 09:59:50;;;;;;;5.43;2.40;;;18.90;98.70;;;;;;5137102;28;20536;-47
2022/11/03 10:02:24;;;;;;;6.33;2.60;;;19.10;97.60;;;;;;5137856;28;20460;-47
2022/11/03 10:04:52;;;;;;;5.57;2.17;;;19.00;96.70;;;;;;5137516;28;20441;-45
2022/11/03 10:07:19;;;;;;;7.00;2.70;;;19.00;96.40;;;;;;5136560;28;20464;-46
2022/11/03 10:09:49;;;;;;;3.73;2.03;;;18.80;96.90;;;;;;5133063;28;20508;-53
2022/11/03 10:12:18;;;;;;;10.50;2.40;;;18.70;96.60;;;;;;5127269;28;21079;-47
2022/11/03 10:14:46;;;;;;;3.83;3.27;;;18.80;96.90;;;;;;5137301;28;20445;-50
2022/11/03 10:17:17;;;;;;;3.57;2.10;;;19.10;96.40;;;;;;5128699;28;20970;-48
2022/11/03 10:19:47;;;;;;;4.63;3.20;;;19.30;95.50;;;;;;5132327;28;20488;-52
2022/11/03 10:22:14;;;;;;;8.07;2.87;;;19.60;94.80;;;;;;5120272;28;20494;-48
2022/11/03 10:24:46;;;;;;;6.77;2.30;;;19.60;94.00;;;;;;5136524;28;20544;-47
2022/11/03 10:27:25;;;;;;;4.80;2.30;;;19.70;93.80;;;;;;5136587;28;20436;-45
2022/11/03 10:30:07;;;;;;;6.60;3.10;;;19.50;93.40;;;;;;5130066;28;20551;-52
2022/11/03 10:32:34;;;;;;;2.90;2.17;;;19.20;93.90;;;;;;5130156;28;20475;-51
2022/11/03 10:35:35;;;;;;;3.47;2.10;;;19.00;94.30;;;;;;5121895;28;20444;-50
2022/11/03 10:38:24;;;;;;;3.53;2.00;;;18.50;95.10;;;;;;5136120;28;20425;-48
2022/11/03 10:40:51;;;;;;;4.67;2.40;;;17.50;97.50;;;;;;5135735;28;20822;-46
2022/11/03 10:43:18;;;;;;;5.57;2.30;;;17.10;99.60;;;;;;5135810;28;20468;-46
2022/11/03 10:45:44;;;;;;;4.47;2.27;;;16.60;99.90;;;;;;5136251;28;20436;-50
2022/11/03 10:48:11;;;;;;;9.40;3.03;;;16.40;99.90;;;;;;5135981;28;20495;-50
2022/11/03 10:50:41;;;;;;;3.67;2.37;;;16.20;99.90;;;;;;5119847;28;20433;-49
2022/11/03 10:53:16;;;;;;;5.83;3.10;;;15.80;99.90;;;;;;5136174;28;20476;-44
2022/11/03 10:55:42;;;;;;;4.47;2.70;;;15.40;99.90;;;;;;5136406;28;20440;-48
2022/11/03 10:58:09;;;;;;;4.50;2.40;;;15.00;99.90;;;;;;5136038;28;20425;-45
2022/11/03 11:00:36;;;;;;;3.60;2.10;;;14.60;99.90;;;;;;5135636;28;20464;-50
2022/11/03 11:03:05;;;;;;;5.53;2.67;;;14.40;99.90;;;;;;5135414;28;20452;-46
2022/11/03 11:05:32;;;;;;;5.10;1.57;;;14.10;99.90;;;;;;5124555;28;20444;-50
2022/11/03 11:08:02;;;;;;;6.10;2.33;;;13.90;99.90;;;;;;5131110;28;20476;-50
2022/11/03 11:10:31;;;;;;;3.80;2.47;;;13.90;99.90;;;;;;5135386;28;20437;-50
2022/11/03 11:13:24;;;;;;;8.23;3.80;;;13.90;99.90;;;;;;5134979;28;20479;-49
2022/11/03 11:15:52;;;;;;;5.17;2.70;;;13.90;99.90;;;;;;5135492;28;20435;-51
2022/11/03 11:19:11;;;;;;;5.23;3.00;;;13.90;99.90;;;;;;5135385;28;20453;-46
2022/11/03 11:22:01;;;;;;;8.67;2.83;;;13.80;99.90;;;;;;5135136;28;20505;-46
2022/11/03 11:25:03;;;;;;;5.03;2.23;;;13.80;99.90;;;;;;5135955;28;20486;-48
2022/11/03 11:28:10;;;;;;;3.73;2.70;;;13.80;99.90;;;;;;5115926;28;20459;-49
2022/11/03 11:34:38;;;;;;;6.07;1.90;;;13.60;99.90;;;;;;5013796;28;20508;-43
2022/11/03 11:37:34;;;;;;;4.50;1.97;;;13.50;99.90;;;;;;5033021;28;20530;-49
2022/11/03 11:40:01;;;;;;;7.87;2.00;;;13.60;99.90;;;;;;5015832;28;20480;-46
2022/11/03 11:42:29;;;;;;;4.33;2.13;;;13.50;99.90;;;;;;5032894;28;20477;-47
2022/11/03 11:45:02;;;;;;;5.03;2.50;;;13.50;99.90;;;;;;5033311;28;20452;-49
2022/11/03 11:47:47;;;;;;;5.90;2.53;;;13.50;99.90;;;;;;5033270;28;20464;-46
2022/11/03 11:50:23;;;;;;;3.50;2.40;;;13.50;99.90;;;;;;5032924;28;20420;-48
2022/11/03 11:52:56;;;;;;;3.00;2.23;;;13.50;99.90;;;;;;5032715;28;20488;-50
2022/11/03 11:55:34;;;;;;;7.63;2.63;;;13.50;99.90;;;;;;5035824;28;20465;-46
2022/11/03 11:58:05;;;;;;;5.77;2.37;;;13.60;99.90;;;;;;5036504;28;20440;-47
2022/11/03 12:00:33;;;;;;;6.20;2.67;;;13.60;99.90;;;;;;5036575;28;20497;-44
2022/11/03 12:03:06;;;;;;;7.90;2.10;;;13.60;99.90;;;;;;5037011;28;20489;-51
2022/11/03 12:05:35;;;;;;;4.50;2.20;;;13.60;99.90;;;;;;5129381;28;20424;-50
2022/11/03 12:08:02;;;;;;;6.67;2.83;;;13.50;99.90;;;;;;5138931;28;20440;-51
2022/11/03 12:10:31;;;;;;;3.37;2.13;;;13.40;99.90;;;;;;5139099;28;20437;-54
2022/11/03 12:13:00;;;;;;;7.80;3.00;;;13.40;99.90;;;;;;5139065;28;20466;-53
2022/11/03 12:15:54;;;;;;;3.30;2.17;;;13.40;99.90;;;;;;5139202;28;20415;-57
2022/11/03 12:18:36;;;;;;;2.20;1.50;;;13.40;99.90;;;;;;5139094;28;20412;-47
2022/11/03 12:21:04;;;;;;;2.77;1.80;;;13.40;99.90;;;;;;5127415;28;20457;-49
2022/11/03 12:23:40;;;;;;;8.00;2.70;;;13.40;99.90;;;;;;5126136;28;20442;-51
2022/11/03 12:26:14;;;;;;;9.40;5.30;;;13.50;99.90;;;;;;5136824;28;20451;-53
2022/11/03 12:28:41;;;;;;;4.10;3.20;;;13.50;99.90;;;;;;5138743;28;20456;-53
2022/11/03 12:31:09;;;;;;;4.40;2.80;;;13.50;99.90;;;;;;5138239;28;20843;-47
2022/11/03 12:33:36;;;;;;;3.00;1.90;;;13.50;99.90;;;;;;5138244;28;20428;-49
2022/11/03 12:36:03;;;;;;;3.00;1.83;;;13.50;99.90;;;;;;5138540;28;20488;-50
2022/11/03 12:38:30;;;;;;;5.37;3.57;;;13.50;99.90;;;;;;5138569;28;20570;-55
2022/11/03 12:41:19;;;;;;;3.63;2.43;;;13.50;99.90;;;;;;5138302;28;20500;-49
2022/11/03 12:43:44;;;;;;;5.67;2.77;;;13.50;99.90;;;;;;5138235;28;20456;-48
2022/11/03 12:46:12;;;;;;;4.50;2.07;;;13.50;99.90;;;;;;5138459;28;20443;-49
2022/11/03 12:48:42;;;;;;;5.10;2.60;;;13.50;99.90;;;;;;5138074;28;20476;-53
2022/11/03 12:51:10;;;;;;;3.90;2.40;;;13.50;99.90;;;;;;5137974;28;20463;-48
2022/11/03 12:53:37;;;;;;;5.83;2.40;;;13.40;99.90;;;;;;5138276;28;20440;-48
2022/11/03 12:56:04;;;;;;;6.00;2.17;;;13.40;99.90;;;;;;5138121;28;20468;-47
2022/11/03 12:58:31;;;;;;;5.03;2.10;;;13.30;99.90;;;;;;5138198;28;20448;-43
2022/11/03 13:00:58;;;;;;;17.20;3.63;;;13.40;99.90;;;;;;5137117;28;20455;-52
2022/11/03 13:03:26;;;;;;;4.70;2.17;;;13.40;99.90;;;;;;5137534;28;20439;-47
2022/11/03 13:05:53;;;;;;;5.77;2.40;;;13.50;99.90;;;;;;5137852;28;20445;-60
2022/11/03 13:08:20;;;;;;;8.27;2.47;;;13.60;99.90;;;;;;5123624;28;20476;-49
2022/11/03 13:10:46;;;;;;;3.87;2.30;;;13.60;99.90;;;;;;5136264;28;20464;-45
2022/11/03 13:13:13;;;;;;;6.10;2.77;;;13.60;99.90;;;;;;5138154;28;20458;-47
2022/11/03 13:15:40;;;;;;;7.30;2.27;;;13.70;99.90;;;;;;5123322;28;20878;-48
2022/11/03 13:18:07;;;;;;;6.20;2.70;;;13.80;99.90;;;;;;5133280;28;20492;-48
2022/11/03 13:20:35;;;;;;;3.60;2.10;;;13.80;99.90;;;;;;5137395;28;20468;-48
2022/11/03 13:23:03;;;;;;;4.33;2.93;;;13.90;99.90;;;;;;5120977;28;20436;-46
2022/11/03 13:25:32;;;;;;;6.10;2.53;;;13.90;99.90;;;;;;5137786;28;20421;-43
2022/11/03 13:28:02;;;;;;;6.37;2.47;;;13.90;99.90;;;;;;5137782;28;20455;-49
2022/11/03 13:30:32;;;;;;;9.97;3.03;;;13.90;99.90;;;;;;5137540;28;20524;-53
2022/11/03 13:32:59;;;;;;;3.90;2.60;;;13.90;99.90;;;;;;5137446;28;20473;-46
2022/11/03 13:35:29;;;;;;;7.90;2.43;;;13.90;99.90;;;;;;5137050;28;20458;-45